Time;durP1;ratioP1;P1;durP2;ratioP2;P2;SDS_P1;SDS_P2;PMS_P1;PMS_P2;Temp;Humidity;BMP_temperature;BMP_pressure;BME280_temperature;BME280_humidity;BME280_pressure;Samples;Min_cycle;Max_cycle;Signal;HPM_P1;HPM_P2
2023/01/07 00:01:39;;;;;;;;;82.00;67.25;;;;;17.48;59.77;95476.28;5073848;28;9630;-58
2023/01/07 00:04:09;;;;;;;;;74.50;63.00;;;;;17.49;59.82;95479.81;5077110;28;10557;-59
2023/01/07 00:06:38;;;;;;;;;82.50;66.75;;;;;17.49;59.76;95479.81;5073616;28;8990;-59
2023/01/07 00:09:10;;;;;;;;;76.75;63.00;;;;;17.48;59.48;95476.28;5073107;28;11166;-59
2023/01/07 00:11:39;;;;;;;;;84.25;67.75;;;;;17.48;59.78;95473.53;5076505;28;9043;-59
2023/01/07 00:14:08;;;;;;;;;81.75;66.75;;;;;17.49;59.82;95472.34;5074269;28;10294;-59
2023/01/07 00:16:36;;;;;;;;;75.25;63.00;;;;;17.49;59.56;95471.56;5078512;28;10275;-60
2023/01/07 00:19:04;;;;;;;;;75.25;61.25;;;;;17.50;59.71;95478.63;5075363;28;8867;-59
2023/01/07 00:21:34;;;;;;;;;80.50;66.25;;;;;17.48;59.73;95468.03;5074503;28;8860;-60
2023/01/07 00:24:04;;;;;;;;;78.50;64.25;;;;;17.49;59.69;95475.09;5079540;28;10031;-60
2023/01/07 00:26:34;;;;;;;;;73.75;61.00;;;;;17.50;59.61;95473.13;5078546;28;9941;-60
2023/01/07 00:29:00;;;;;;;;;71.00;60.00;;;;;17.49;59.58;95469.59;5077766;28;8870;-59
2023/01/07 00:31:36;;;;;;;;;80.00;66.00;;;;;17.49;59.60;95461.31;5077717;28;8853;-60
2023/01/07 00:36:39;;;;;;;;;80.50;67.50;;;;;17.49;59.36;95466.84;5081242;28;8845;-58
2023/01/07 00:39:20;;;;;;;;;86.25;71.25;;;;;17.49;59.53;95461.31;5078896;28;10438;-58
2023/01/07 00:44:34;;;;;;;;;84.50;68.25;;;;;17.49;59.22;95455.00;5072317;28;8937;-60
2023/01/07 00:47:01;;;;;;;;;72.25;60.25;;;;;17.50;59.33;95453.81;5096441;28;11537;-59
2023/01/07 00:49:28;;;;;;;;;70.00;59.00;;;;;17.50;59.44;95454.63;5070611;28;8887;-59
2023/01/07 00:51:55;;;;;;;;;73.50;61.00;;;;;17.50;59.36;95445.56;5077487;28;9036;-59
2023/01/07 00:54:23;;;;;;;;;82.25;69.00;;;;;17.49;59.16;95441.22;5064326;28;9656;-59
2023/01/07 00:56:50;;;;;;;;;70.75;59.00;;;;;17.49;59.23;95439.28;5072476;28;10520;-59
2023/01/07 00:59:17;;;;;;;;;75.25;62.00;;;;;17.50;59.52;95440.84;5073177;28;8828;-60
2023/01/07 01:01:44;;;;;;;;;73.25;61.75;;;;;17.50;59.06;95431.78;5092657;27;9982;-58
2023/01/07 01:04:14;;;;;;;;;75.50;62.25;;;;;17.50;59.20;95431.78;5071530;28;9021;-59
2023/01/07 01:06:41;;;;;;;;;76.50;64.25;;;;;17.49;59.08;95424.69;5076621;28;9470;-59
2023/01/07 01:09:08;;;;;;;;;83.50;69.00;;;;;17.49;59.25;95424.69;5079571;28;9038;-59
2023/01/07 01:11:35;;;;;;;;;84.00;70.00;;;;;17.49;59.09;95425.50;5079110;28;10548;-58
2023/01/07 01:14:02;;;;;;;;;71.50;59.50;;;;;17.50;59.06;95424.31;5081707;28;10682;-59
2023/01/07 01:16:32;;;;;;;;;70.00;59.50;;;;;17.49;58.97;95427.44;5079472;28;9113;-60
2023/01/07 01:18:59;;;;;;;;;74.00;61.25;;;;;17.49;58.82;95428.25;5080413;28;8921;-59
2023/01/07 01:21:26;;;;;;;;;70.00;59.50;;;;;17.50;59.02;95429.81;5075422;28;9419;-59
2023/01/07 01:23:55;;;;;;;;;76.00;63.00;;;;;17.50;59.02;95429.00;5080156;28;18340;-59
2023/01/07 01:26:22;;;;;;;;;77.00;63.00;;;;;17.49;58.87;95431.00;5080919;28;10724;-59
2023/01/07 01:28:52;;;;;;;;;75.00;62.33;;;;;17.50;59.13;95420.75;5080346;28;9427;-59
2023/01/07 01:31:23;;;;;;;;;66.00;55.50;;;;;17.49;58.99;95422.72;5077026;28;9898;-59
2023/01/07 01:33:55;;;;;;;;;70.25;60.00;;;;;17.49;59.02;95417.22;5072950;28;9064;-60
2023/01/07 01:36:24;;;;;;;;;70.25;60.25;;;;;17.49;58.88;95419.97;5081568;28;9202;-60
2023/01/07 01:38:56;;;;;;;;;73.25;60.25;;;;;17.49;59.07;95411.72;5080819;28;9462;-59
2023/01/07 01:41:23;;;;;;;;;72.00;61.00;;;;;17.49;59.01;95416.41;5079420;28;8947;-59
2023/01/07 01:43:52;;;;;;;;;68.25;58.25;;;;;17.50;58.99;95412.47;5096378;28;9636;-59
2023/01/07 01:46:35;;;;;;;;;75.50;63.00;;;;;17.50;59.00;95409.72;5082388;28;9173;-59
2023/01/07 01:49:15;;;;;;;;;69.25;58.75;;;;;17.50;59.00;95418.00;5078441;28;9727;-59
2023/01/07 01:51:52;;;;;;;;;77.25;64.50;;;;;17.50;59.01;95415.22;5083496;28;9964;-58
2023/01/07 01:54:21;;;;;;;;;77.00;63.50;;;;;17.49;58.78;95417.22;5085282;28;10178;-58
2023/01/07 01:56:54;;;;;;;;;76.00;63.00;;;;;17.49;58.73;95413.66;5077540;28;9954;-58
2023/01/07 01:59:27;;;;;;;;;77.75;64.25;;;;;17.49;58.95;95417.22;5089183;28;9995;-58
2023/01/07 02:01:56;;;;;;;;;75.00;63.25;;;;;17.50;58.86;95409.72;5085860;28;10361;-58
2023/01/07 02:04:25;;;;;;;;;75.50;62.50;;;;;17.50;59.09;95418.00;5086195;28;9790;-59
2023/01/07 02:07:07;;;;;;;;;83.75;69.25;;;;;17.50;58.70;95406.97;5081587;28;9125;-59
2023/01/07 02:09:37;;;;;;;;;69.00;59.75;;;;;17.49;58.77;95400.69;5103163;28;11010;-59
2023/01/07 02:12:23;;;;;;;;;76.00;62.00;;;;;17.49;58.69;95400.69;5088277;28;9175;-58
2023/01/07 02:14:59;;;;;;;;;68.75;58.25;;;;;17.50;59.08;95398.69;5086354;28;10198;-59
2023/01/07 02:17:40;;;;;;;;;81.50;68.25;;;;;17.49;58.91;95400.69;5089471;28;8853;-58
2023/01/07 02:20:22;;;;;;;;;77.25;63.25;;;;;17.50;58.86;95415.22;5087593;28;11116;-58
2023/01/07 02:23:41;;;;;;;;;74.75;63.00;;;;;17.50;58.71;95404.22;5082350;28;10097;-59
2023/01/07 02:26:35;;;;;;;;;68.00;58.25;;;;;17.49;58.73;95414.47;5089121;28;10083;-58
2023/01/07 02:29:15;;;;;;;;;72.00;61.00;;;;;17.50;58.80;95412.47;5088404;28;10371;-58
2023/01/07 02:32:08;;;;;;;;;79.25;66.25;;;;;17.49;58.82;95419.19;5071515;28;8975;-59
2023/01/07 02:35:00;;;;;;;;;75.50;63.00;;;;;17.49;58.86;95414.47;5025699;28;11122;-59
2023/01/07 02:37:39;;;;;;;;;76.00;63.25;;;;;17.50;58.89;95412.47;5032288;28;10107;-58
2023/01/07 02:40:23;;;;;;;;;76.25;63.25;;;;;17.49;58.74;95417.22;5044004;28;10028;-58
2023/01/07 02:43:01;;;;;;;;;73.00;62.00;;;;;17.50;58.65;95412.47;5047710;28;10193;-58
2023/01/07 02:45:34;;;;;;;;;73.00;62.00;;;;;17.50;58.78;95420.75;5036766;28;9925;-58
2023/01/07 02:48:07;;;;;;;;;67.25;57.25;;;;;17.50;58.56;95416.03;5045885;28;9334;-58
2023/01/07 02:50:34;;;;;;;;;74.75;62.00;;;;;17.50;58.85;95418.00;5032020;28;8847;-58
2023/01/07 02:53:01;;;;;;;;;66.25;56.00;;;;;17.50;58.70;95421.53;5025837;28;9620;-58
2023/01/07 02:55:57;;;;;;;;;66.50;56.75;;;;;17.51;58.64;95414.03;5042184;28;9626;-58
2023/01/07 02:59:02;;;;;;;;;74.50;63.25;;;;;17.51;58.79;95422.31;5047811;28;9108;-58
2023/01/07 03:01:32;;;;;;;;;74.25;62.75;;;;;17.52;58.60;95421.13;4950737;28;11045;-59
2023/01/07 03:04:37;;;;;;;;;75.00;63.00;;;;;17.50;58.50;95416.03;4968230;28;9851;-58
2023/01/07 03:07:22;;;;;;;;;74.50;63.00;;;;;17.50;58.63;95416.03;4968839;28;9891;-58
2023/01/07 03:10:20;;;;;;;;;66.50;56.00;;;;;17.52;58.75;95415.63;4964810;28;9900;-58
2023/01/07 03:13:01;;;;;;;;;68.00;56.25;;;;;17.51;58.76;95414.03;5014315;28;9544;-58
2023/01/07 03:16:01;;;;;;;;;73.00;62.00;;;;;17.50;58.65;95410.53;5028077;28;8873;-58
2023/01/07 03:18:33;;;;;;;;;64.00;54.75;;;;;17.52;58.53;95416.41;5007523;28;9481;-59
2023/01/07 03:21:06;;;;;;;;;71.33;60.33;;;;;17.51;58.76;95416.81;5025566;28;9691;-58
2023/01/07 03:23:38;;;;;;;;;71.33;60.33;;;;;17.52;58.56;95413.66;5011937;28;9435;-58
2023/01/07 03:26:06;;;;;;;;;65.00;56.00;;;;;17.52;58.74;95424.69;5009772;28;9317;-58
2023/01/07 03:28:40;;;;;;;;;71.25;60.25;;;;;17.53;58.54;95414.41;5009035;28;9031;-58
2023/01/07 03:31:11;;;;;;;;;70.00;60.25;;;;;17.52;58.55;95418.38;5009362;28;10976;-58
2023/01/07 03:33:44;;;;;;;;;72.75;61.75;;;;;17.53;58.59;95415.19;5083952;28;9722;-59
2023/01/07 03:36:14;;;;;;;;;67.00;57.00;;;;;17.52;58.76;95413.66;5081110;28;9502;-58
2023/01/07 03:38:44;;;;;;;;;71.33;60.33;;;;;17.52;58.62;95412.84;5098940;28;8842;-58
2023/01/07 03:42:38;;;;;;;;;67.00;56.00;;;;;17.53;58.46;95403.41;5093178;28;9230;-58
2023/01/07 03:43:58;;;;;;;;;65.00;56.00;;;;;17.53;58.34;95411.66;5085683;28;9571;-59
2023/01/07 03:46:26;;;;;;;;;66.75;56.25;;;;;17.52;58.69;95408.13;5083925;28;8853;-58
2023/01/07 03:48:54;;;;;;;;;70.00;60.33;;;;;17.52;58.45;95407.34;5087046;28;8869;-58
2023/01/07 03:51:21;;;;;;;;;67.00;56.00;;;;;17.52;58.49;95410.91;5103865;27;10094;-58
2023/01/07 03:53:48;;;;;;;;;64.25;56.00;;;;;17.53;58.50;95414.41;5086698;28;9942;-58
2023/01/07 03:56:15;;;;;;;;;66.75;57.25;;;;;17.52;58.46;95408.13;5085902;28;9546;-59
2023/01/07 03:58:42;;;;;;;;;67.00;56.00;;;;;17.52;58.47;95405.38;5087676;28;9974;-58
2023/01/07 04:01:09;;;;;;;;;73.00;62.00;;;;;17.52;58.37;95408.13;5084287;28;10756;-59
2023/01/07 04:03:36;;;;;;;;;72.75;60.50;;;;;17.52;58.65;95404.59;5085378;28;9573;-58
2023/01/07 04:06:04;;;;;;;;;67.25;55.50;;;;;17.52;58.54;95401.81;5084391;28;10639;-58
2023/01/07 04:08:30;;;;;;;;;64.50;56.00;;;;;17.52;58.57;95408.13;5084342;28;8840;-57
2023/01/07 04:10:58;;;;;;;;;72.50;60.75;;;;;17.52;58.59;95408.13;5084552;28;8872;-57
2023/01/07 04:13:26;;;;;;;;;66.00;56.00;;;;;17.52;58.34;95408.13;5086435;28;9511;-58
2023/01/07 04:15:52;;;;;;;;;65.75;56.00;;;;;17.53;58.37;95400.63;5083324;28;8975;-59
2023/01/07 04:18:19;;;;;;;;;80.25;66.25;;;;;17.53;58.39;95386.84;5087613;28;9623;-58
2023/01/07 04:20:47;;;;;;;;;78.25;66.25;;;;;17.54;58.62;95385.66;5085399;28;10179;-58
2023/01/07 04:23:15;;;;;;;;;73.50;62.75;;;;;17.52;58.43;95388.03;5086869;28;10064;-58
2023/01/07 04:25:48;;;;;;;;;67.00;57.25;;;;;17.53;57.97;95392.38;5081536;28;10020;-59
2023/01/07 04:28:19;;;;;;;;;67.00;56.25;;;;;17.52;58.30;95388.84;5080403;28;8887;-58
2023/01/07 04:30:46;;;;;;;;;70.33;59.33;;;;;17.52;58.17;95379.78;5081171;28;8921;-59
2023/01/07 04:33:13;;;;;;;;;64.75;56.00;;;;;17.51;58.10;95380.97;5084308;28;8987;-58
2023/01/07 04:35:40;;;;;;;;;69.33;59.00;;;;;17.52;58.33;95388.03;5098978;27;9623;-58
2023/01/07 04:38:07;;;;;;;;;73.33;61.33;;;;;17.52;58.24;95385.28;5082284;28;9085;-58
2023/01/07 04:40:34;;;;;;;;;65.00;56.00;;;;;17.52;58.09;95382.53;5080098;28;9562;-58
2023/01/07 04:43:01;;;;;;;;;75.25;63.00;;;;;17.50;58.01;95391.22;5103512;27;8943;-58
2023/01/07 04:45:29;;;;;;;;;65.50;56.50;;;;;17.51;58.15;95394.75;5083298;28;9682;-59
2023/01/07 04:47:58;;;;;;;;;67.00;57.00;;;;;17.50;58.23;95393.19;5086508;28;9213;-58
2023/01/07 04:50:26;;;;;;;;;67.25;58.00;;;;;17.50;58.11;95391.22;5085923;28;9338;-58
2023/01/07 04:52:53;;;;;;;;;70.25;60.00;;;;;17.50;58.00;95393.97;5081880;28;8933;-58
2023/01/07 04:55:21;;;;;;;;;68.25;57.25;;;;;17.50;57.92;95388.47;5080358;28;8898;-58
2023/01/07 04:57:49;;;;;;;;;66.50;56.25;;;;;17.51;57.84;95394.75;5101725;27;8933;-58
2023/01/07 05:00:16;;;;;;;;;76.75;63.25;;;;;17.51;57.77;95397.50;5083288;28;10442;-58
2023/01/07 05:02:46;;;;;;;;;75.50;63.00;;;;;17.50;57.92;95395.94;5098162;27;10548;-59
2023/01/07 05:05:14;;;;;;;;;73.00;60.00;;;;;17.50;57.97;95393.97;5083857;28;9938;-58
2023/01/07 05:07:42;;;;;;;;;69.75;58.75;;;;;17.49;57.91;95395.16;5080371;28;10649;-58
2023/01/07 05:10:09;;;;;;;;;75.00;63.25;;;;;17.50;57.79;95396.75;5086625;28;8847;-57
2023/01/07 05:12:36;;;;;;;;;73.50;61.25;;;;;17.50;57.95;95402.25;5083369;28;9891;-58
2023/01/07 05:15:06;;;;;;;;;77.25;63.00;;;;;17.50;57.85;95391.22;5079919;28;9626;-59
2023/01/07 05:17:35;;;;;;;;;73.00;61.50;;;;;17.51;57.67;95383.72;5085156;28;10866;-58
2023/01/07 05:20:05;;;;;;;;;74.25;63.00;;;;;17.49;57.71;95389.66;5079888;28;9680;-58
2023/01/07 05:22:33;;;;;;;;;75.50;63.00;;;;;17.49;57.68;95383.34;5081166;28;10809;-58
2023/01/07 05:25:01;;;;;;;;;73.00;61.67;;;;;17.49;57.97;95386.09;5083119;28;10133;-59
2023/01/07 05:27:28;;;;;;;;;77.25;62.00;;;;;17.50;57.46;95382.16;5080614;28;12552;-58
2023/01/07 05:29:56;;;;;;;;;69.00;58.00;;;;;17.50;57.79;95382.97;5080863;28;10844;-58
2023/01/07 05:32:23;;;;;;;;;72.00;60.50;;;;;17.50;57.48;95385.72;5086349;28;9193;-58
2023/01/07 05:34:50;;;;;;;;;80.75;67.25;;;;;17.50;57.66;95384.91;5077741;28;9135;-58
2023/01/07 05:37:18;;;;;;;;;81.25;68.25;;;;;17.50;57.54;95382.97;5087475;28;10186;-58
2023/01/07 05:39:44;;;;;;;;;72.75;60.75;;;;;17.50;57.89;95390.44;5081231;28;13028;-59
2023/01/07 05:42:16;;;;;;;;;82.75;68.25;;;;;17.49;57.63;95391.63;5083990;28;9100;-58
2023/01/07 05:44:43;;;;;;;;;70.00;59.75;;;;;17.49;57.92;95386.09;5082140;28;10581;-58
2023/01/07 05:47:10;;;;;;;;;80.25;67.00;;;;;17.50;57.50;95390.44;5081209;28;8846;-58
2023/01/07 05:49:36;;;;;;;;;76.25;64.00;;;;;17.49;57.57;95388.84;5084788;28;10576;-58
2023/01/07 05:52:03;;;;;;;;;66.75;57.00;;;;;17.50;57.78;95395.94;5082677;28;10179;-57
2023/01/07 05:54:30;;;;;;;;;76.25;62.50;;;;;17.48;57.47;95388.09;5080380;28;9039;-58
2023/01/07 05:56:57;;;;;;;;;71.50;60.00;;;;;17.49;57.67;95395.16;5086300;28;9849;-58
2023/01/07 05:59:24;;;;;;;;;73.25;61.75;;;;;17.49;57.71;95388.84;5078879;28;9052;-58
2023/01/07 06:01:51;;;;;;;;;73.25;62.00;;;;;17.49;57.50;95386.09;5079510;28;9461;-58
2023/01/07 06:04:17;;;;;;;;;70.25;60.25;;;;;17.49;57.53;95391.63;5078637;28;9783;-58
2023/01/07 06:06:44;;;;;;;;;68.50;57.25;;;;;17.50;57.49;95398.69;5084917;28;9196;-58
2023/01/07 06:09:11;;;;;;;;;71.33;60.33;;;;;17.48;57.48;95395.59;5084877;28;8826;-58
2023/01/07 06:11:38;;;;;;;;;67.00;56.25;;;;;17.49;57.76;95399.88;5085466;28;9640;-58
2023/01/07 06:14:05;;;;;;;;;66.75;56.00;;;;;17.48;57.46;95399.13;5081539;28;8865;-58
2023/01/07 06:16:32;;;;;;;;;68.75;59.00;;;;;17.49;57.65;95405.41;5076073;28;8904;-58
2023/01/07 06:18:58;;;;;;;;;71.25;60.25;;;;;17.49;57.65;95408.16;5081324;28;8907;-58
2023/01/07 06:21:26;;;;;;;;;71.33;60.33;;;;;17.49;57.63;95416.41;5085203;28;9648;-58
2023/01/07 06:23:52;;;;;;;;;65.25;55.75;;;;;17.49;57.51;95419.97;5082910;28;9064;-58
2023/01/07 06:26:19;;;;;;;;;71.50;59.00;;;;;17.49;57.48;95414.47;5082302;28;11174;-58
2023/01/07 06:28:46;;;;;;;;;69.75;58.25;;;;;17.48;57.41;95421.16;5080818;28;8980;-58
2023/01/07 06:31:13;;;;;;;;;65.00;55.00;;;;;17.49;57.74;95425.50;5082567;28;9745;-58
2023/01/07 06:33:40;;;;;;;;;64.75;55.25;;;;;17.49;57.48;95419.97;5080094;28;8962;-58
2023/01/07 06:36:07;;;;;;;;;65.25;56.00;;;;;17.49;57.54;95421.94;5080305;28;9011;-58
2023/01/07 06:38:34;;;;;;;;;66.50;55.50;;;;;17.48;57.57;95421.16;5086006;28;9000;-58
2023/01/07 06:41:01;;;;;;;;;64.00;54.25;;;;;17.49;57.40;95430.19;5082388;28;11038;-58
2023/01/07 06:43:29;;;;;;;;;66.00;55.50;;;;;17.49;57.65;95422.72;5086296;28;9644;-58
2023/01/07 06:45:56;;;;;;;;;76.33;65.00;;;;;17.49;57.41;95417.22;5081190;28;8870;-58
2023/01/07 06:48:23;;;;;;;;;69.33;59.33;;;;;17.49;57.12;95410.91;5091757;28;14458;-58
2023/01/07 06:50:49;;;;;;;;;67.25;56.00;;;;;17.48;57.50;95404.63;5090606;28;9443;-58
2023/01/07 06:53:16;;;;;;;;;70.67;59.33;;;;;17.48;57.25;95406.63;5086884;28;9015;-58
2023/01/07 06:55:50;;;;;;;;;74.67;60.67;;;;;17.49;57.50;95413.66;5088978;28;9483;-58
2023/01/07 06:58:17;;;;;;;;;66.50;56.25;;;;;17.48;57.56;95417.63;5088226;28;9679;-58
2023/01/07 07:00:44;;;;;;;;;65.25;56.00;;;;;17.48;57.47;95412.13;5086026;28;9275;-58
2023/01/07 07:03:11;;;;;;;;;72.00;60.33;;;;;17.48;57.10;95423.16;5089951;28;8971;-58
2023/01/07 07:05:38;;;;;;;;;69.00;58.00;;;;;17.46;57.26;95418.03;5086821;28;9317;-58
2023/01/07 07:08:05;;;;;;;;;67.50;57.50;;;;;17.47;57.14;95416.06;5089818;28;9623;-58
2023/01/07 07:10:32;;;;;;;;;75.50;63.50;;;;;17.48;57.15;95428.66;5087906;28;9609;-58
2023/01/07 07:12:59;;;;;;;;;64.75;55.00;;;;;17.47;57.21;95410.56;5084604;28;9469;-58
2023/01/07 07:15:26;;;;;;;;;69.25;59.00;;;;;17.47;57.22;95410.56;5083530;28;9688;-58
2023/01/07 07:17:53;;;;;;;;;69.25;58.25;;;;;17.47;57.33;95425.13;5089787;28;8833;-59
2023/01/07 07:20:20;;;;;;;;;65.00;55.75;;;;;17.47;57.10;95411.34;5088828;28;8894;-58
2023/01/07 07:22:47;;;;;;;;;71.33;60.33;;;;;17.47;57.33;95427.88;5076515;28;8983;-58
2023/01/07 07:25:15;;;;;;;;;68.25;57.25;;;;;17.48;57.13;95417.63;5088182;28;10456;-58
2023/01/07 07:27:45;;;;;;;;;65.25;56.00;;;;;17.47;57.51;95419.59;5093288;28;8915;-59
2023/01/07 07:30:15;;;;;;;;;69.75;58.50;;;;;17.48;57.28;95425.91;5080494;28;8829;-57
2023/01/07 07:32:42;;;;;;;;;72.00;59.00;;;;;17.47;57.07;95430.63;5087843;28;8852;-57
2023/01/07 07:35:10;;;;;;;;;66.50;56.00;;;;;17.47;56.85;95438.13;5085799;28;8956;-58
2023/01/07 07:37:38;;;;;;;;;70.50;60.00;;;;;17.48;57.43;95436.94;5080493;28;8910;-57
2023/01/07 07:40:06;;;;;;;;;71.75;61.00;;;;;17.48;57.08;95437.72;5087684;28;9819;-57
2023/01/07 07:42:33;;;;;;;;;68.75;58.50;;;;;17.47;57.28;95430.63;5085672;28;9413;-57
2023/01/07 07:45:20;;;;;;;;;65.50;55.00;;;;;17.47;57.40;95433.38;5083932;28;10015;-57
2023/01/07 07:47:46;;;;;;;;;71.25;60.25;;;;;17.47;57.47;95427.88;5085656;28;9190;-57
2023/01/07 07:50:13;;;;;;;;;63.00;54.75;;;;;17.48;57.25;95443.22;5082485;28;8860;-58
2023/01/07 07:52:40;;;;;;;;;70.00;59.00;;;;;17.46;57.46;95448.34;5070480;28;9544;-57
2023/01/07 07:55:07;;;;;;;;;65.00;56.00;;;;;17.47;57.12;95451.91;5091104;28;8841;-57
2023/01/07 07:57:57;;;;;;;;;68.25;58.25;;;;;17.47;57.43;95468.44;5080639;28;9223;-58
2023/01/07 08:00:24;;;;;;;;;64.25;56.00;;;;;17.47;57.58;95462.94;5089512;28;8988;-57
2023/01/07 08:02:51;;;;;;;;;69.75;60.00;;;;;17.47;57.41;95466.47;5087592;28;8953;-58
2023/01/07 08:05:18;;;;;;;;;70.00;59.50;;;;;17.47;57.71;95463.69;5082940;28;10309;-58
2023/01/07 08:07:45;;;;;;;;;71.25;60.25;;;;;17.47;57.56;95463.69;5091957;28;8829;-58
2023/01/07 08:10:12;;;;;;;;;64.75;56.00;;;;;17.48;57.56;95467.25;5080276;28;9637;-59
2023/01/07 08:12:39;;;;;;;;;66.25;55.50;;;;;17.47;57.36;95476.72;5089781;28;8849;-59
2023/01/07 08:15:07;;;;;;;;;67.00;55.00;;;;;17.47;57.52;95466.47;5079735;28;8837;-59
2023/01/07 08:17:35;;;;;;;;;73.00;58.75;;;;;17.47;57.45;95460.19;5087707;28;9045;-59
2023/01/07 08:20:04;;;;;;;;;68.00;58.00;;;;;17.47;57.43;95465.69;5088856;28;8837;-57
2023/01/07 08:22:32;;;;;;;;;65.25;55.00;;;;;17.46;57.28;95466.88;5088595;28;8887;-58
2023/01/07 08:24:59;;;;;;;;;70.75;59.50;;;;;17.46;57.48;95481.44;5085976;28;9097;-58
2023/01/07 08:27:27;;;;;;;;;68.75;56.00;;;;;17.47;57.19;95476.72;5086447;28;8867;-58
2023/01/07 08:29:54;;;;;;;;;66.50;56.00;;;;;17.47;57.08;95462.94;5083137;28;8925;-58
2023/01/07 08:32:22;;;;;;;;;66.00;57.25;;;;;17.47;57.40;95460.19;5084498;28;8920;-60
2023/01/07 08:34:49;;;;;;;;;64.25;55.00;;;;;17.46;56.94;95456.63;5083296;28;8864;-59
2023/01/07 08:37:16;;;;;;;;;70.25;59.50;;;;;17.46;57.12;95445.59;5088918;28;8861;-60
2023/01/07 08:39:43;;;;;;;;;61.25;51.50;;;;;17.45;56.99;95448.78;5081475;28;8821;-60
2023/01/07 08:42:09;;;;;;;;;71.50;60.25;;;;;17.46;57.17;95453.09;5092279;28;8841;-59
2023/01/07 08:44:36;;;;;;;;;65.00;55.75;;;;;17.46;56.93;95451.09;5087265;28;9687;-59
2023/01/07 08:47:03;;;;;;;;;66.00;56.00;;;;;17.46;56.91;95451.09;5082377;28;8854;-61
2023/01/07 08:49:30;;;;;;;;;80.00;63.33;;;;;17.47;56.48;95466.47;5086856;28;8837;-67
2023/01/07 08:51:57;;;;;;;;;73.00;61.00;;;;;17.43;55.11;95466.50;5083511;28;9044;-63
2023/01/07 08:54:24;;;;;;;;;71.25;59.00;;;;;17.39;55.42;95474.03;5085218;28;8999;-63
2023/01/07 08:56:51;;;;;;;;;76.33;63.00;;;;;17.38;55.79;95475.22;5089306;28;8845;-63
2023/01/07 08:59:17;;;;;;;;;79.67;63.00;;;;;17.38;55.32;95468.91;5083148;28;9343;-66
2023/01/07 09:01:44;;;;;;;;;74.00;60.50;;;;;17.33;53.76;95461.84;5083554;28;10285;-77
2023/01/07 09:04:11;;;;;;;;;74.00;61.50;;;;;17.32;54.88;95460.28;5081026;28;8960;-66
2023/01/07 09:06:38;;;;;;;;;74.67;62.67;;;;;17.33;55.08;95458.34;5079313;28;8853;-65
2023/01/07 09:09:05;;;;;;;;;83.67;66.33;;;;;17.37;52.47;95464.59;5080556;28;9337;-62
2023/01/07 09:11:32;;;;;;;;;86.00;69.50;;;;;17.27;47.32;95471.75;5076349;28;9719;-63
2023/01/07 09:13:59;;;;;;;;;90.25;72.25;;;;;17.06;46.64;95478.25;5079234;28;10054;-67
2023/01/07 09:16:26;;;;;;;;;87.00;71.00;;;;;16.88;46.34;95475.59;5081529;28;10446;-67
2023/01/07 09:18:53;;;;;;;;;75.00;62.00;;;;;16.78;48.62;95483.53;5076959;28;10189;-67
